Airfield :
LOGIN :

Register | Disclaimer

   EN    FR    IT 

 










Legend :    VFR   Marginal VFR   IFR   Intensive IFR   Very Intensive IFR
Visi :
Ceiling :
>= 8 km
>= 3000ft
5 to 8 km
1000 to 3000 ft
1500m to 5 km
500 to 1000 ft
800 to 1500m
200 to 500 ft
< 800m
< 200 ft
Symbols :   Thunderstorms  Fog  Heavy snow  Heavy precipitations  Wind > 20 kt
SIGMETs :     Misc.  Thunderstorms  Icing  Turbulence  Mountain Waves  Volcanic Ashes






- Airport Elevation : 610 ft
- IATA code : VXO


ESMX - Växjö Kronoberg

CURRENT METAR :
  • 142120Z 00000KT 0050 R01/0300N R19/0325N FG VV002 01/01 Q1017

EXPIRED METARs :
  • 142050Z VRB02KT 0100 R01/0325N R19/0700N FG VV002 01/01 Q1016
  • 142020Z 14003KT 0250 R01/1100N R19/0700N FG NSC 00/00 Q1016
  • 141950Z 11001KT 0200 R01/0800N R19/0650N FG NSC 01/01 Q1016
  • 141920Z VRB01KT 0400 R01/0750N R19/0450N FG NSC 01/01 Q1015
  • 141850Z 15003KT 3000 BR NSC 02/02 Q1015
  • 141820Z 13003KT 5000 BR NSC 03/03 Q1014

TAF TAF ESMX
Valid from the 14 at 21:00 until the 15 at 02:00 UTC


142030Z 1421/1502 18003KT 9999 BKN030
TEMPO 1421/1502 0200 FG VV002



MET'MAP, your aeronautical weather chart ! - Copyright ORBIFLY December 2007 - Disclaimer

ORBIFLY MET'MAP TEAM :

Programming & Development : Alexandra Zaïnal
Concept & Development : Baudouin d'Aumeries
Co-Development & Prog : Marc-Olivier Méhu
Technical & hardware support : Manuel Goepfert

Contact : metmap@orbifly.com




SOURCES & CREDITS :

   NOAA